Time;durP1;ratioP1;P1;durP2;ratioP2;P2;SDS_P1;SDS_P2;PMS_P1;PMS_P2;Temp;Humidity;BMP_temperature;BMP_pressure;BME280_temperature;BME280_humidity;BME280_pressure;Samples;Min_cycle;Max_cycle;Signal;HPM_P1;HPM_P2
2022/12/05 00:00:33;;;;;;;84.80;36.28;;;5.10;99.90;;;;;;5034490;28;20604;-71
2022/12/05 00:03:05;;;;;;;90.78;36.80;;;5.10;99.90;;;;;;5025509;28;20124;-71
2022/12/05 00:05:31;;;;;;;92.05;36.25;;;5.10;99.90;;;;;;5029748;28;20079;-70
2022/12/05 00:07:57;;;;;;;81.57;37.38;;;5.20;99.90;;;;;;5032367;28;20018;-71
2022/12/05 00:10:23;;;;;;;82.25;36.35;;;5.20;99.90;;;;;;5032013;28;20147;-71
2022/12/05 00:12:48;;;;;;;91.35;37.03;;;5.20;99.90;;;;;;5032686;28;20538;-71
2022/12/05 00:15:14;;;;;;;81.13;36.45;;;5.20;99.90;;;;;;5033635;28;20110;-70
2022/12/05 00:17:40;;;;;;;82.82;37.10;;;5.20;99.90;;;;;;5033296;28;20036;-71
2022/12/05 00:20:08;;;;;;;89.68;36.90;;;5.10;99.90;;;;;;5031377;28;20055;-71
2022/12/05 00:22:37;;;;;;;77.13;36.15;;;5.10;99.90;;;;;;5034100;28;20025;-71
2022/12/05 00:25:05;;;;;;;82.18;35.67;;;5.20;99.90;;;;;;5029581;28;20021;-69
2022/12/05 00:27:31;;;;;;;91.70;38.13;;;5.20;99.90;;;;;;5033510;28;20100;-69
2022/12/05 00:29:57;;;;;;;87.80;37.38;;;5.10;99.90;;;;;;5031934;28;20537;-69
2022/12/05 00:32:23;;;;;;;93.43;37.95;;;5.10;99.90;;;;;;5031167;28;20056;-70
2022/12/05 00:34:49;;;;;;;79.28;37.28;;;5.10;99.90;;;;;;5035388;28;20552;-69
2022/12/05 00:37:15;;;;;;;85.75;36.20;;;5.10;99.90;;;;;;5023338;28;20076;-70
2022/12/05 00:39:41;;;;;;;85.28;37.15;;;5.30;99.90;;;;;;5026746;28;20030;-70
2022/12/05 00:42:06;;;;;;;86.00;36.28;;;5.30;99.90;;;;;;5031519;28;20060;-69
2022/12/05 00:44:32;;;;;;;76.68;34.88;;;5.10;99.90;;;;;;5027102;28;20037;-71
2022/12/05 00:46:57;;;;;;;75.80;34.13;;;5.10;99.90;;;;;;5030729;28;20052;-71
2022/12/05 00:49:23;;;;;;;80.97;34.75;;;5.10;99.90;;;;;;5024301;28;20075;-69
2022/12/05 00:51:49;;;;;;;78.95;36.85;;;5.10;99.90;;;;;;5029304;28;20079;-70
2022/12/05 00:54:15;;;;;;;84.43;35.58;;;5.20;99.90;;;;;;5032533;28;20561;-71
2022/12/05 00:56:42;;;;;;;74.50;34.85;;;5.10;99.90;;;;;;5026010;28;20079;-71
2022/12/05 00:59:16;;;;;;;79.47;35.42;;;5.10;99.90;;;;;;5031521;28;20033;-71
2022/12/05 01:01:43;;;;;;;79.70;36.10;;;5.10;99.90;;;;;;5022287;28;20047;-71
2022/12/05 01:04:12;;;;;;;79.93;34.00;;;5.10;99.90;;;;;;5029518;28;20021;-70
2022/12/05 01:06:38;;;;;;;88.40;37.15;;;5.20;99.90;;;;;;5031648;28;20462;-68
2022/12/05 01:09:05;;;;;;;86.47;36.63;;;5.20;99.90;;;;;;5022877;28;20033;-71
2022/12/05 01:11:31;;;;;;;79.65;38.25;;;5.20;99.90;;;;;;5031288;28;20084;-69
2022/12/05 01:13:57;;;;;;;78.32;36.28;;;5.20;99.90;;;;;;5031568;28;20485;-71
2022/12/05 01:16:32;;;;;;;83.90;38.08;;;5.30;99.90;;;;;;5031265;28;20061;-75
2022/12/05 01:19:00;;;;;;;66.47;31.30;;;5.30;99.90;;;;;;5030486;28;20037;-72
2022/12/05 01:21:26;;;;;;;61.30;31.88;;;5.40;99.90;;;;;;5029242;28;20057;-72
2022/12/05 01:23:52;;;;;;;78.10;35.60;;;5.50;99.90;;;;;;5023139;28;20053;-71
2022/12/05 01:26:19;;;;;;;78.60;35.70;;;5.60;99.90;;;;;;5000891;28;20034;-71
2022/12/05 01:28:46;;;;;;;79.07;34.90;;;5.40;99.90;;;;;;5026202;28;20029;-71
2022/12/05 01:31:25;;;;;;;81.90;36.72;;;5.50;99.90;;;;;;5023469;28;20536;-71
2022/12/05 01:33:53;;;;;;;77.07;35.60;;;5.50;99.90;;;;;;5025526;28;20409;-71
2022/12/05 01:36:19;;;;;;;77.72;36.38;;;5.40;99.90;;;;;;5021440;28;20112;-71
2022/12/05 01:38:45;;;;;;;77.68;35.78;;;5.50;99.90;;;;;;5023689;28;20041;-70
2022/12/05 01:41:14;;;;;;;81.53;36.28;;;5.50;99.90;;;;;;5024884;28;20087;-70
2022/12/05 01:44:06;;;;;;;88.55;37.22;;;5.40;99.90;;;;;;5025699;28;20009;-70
2022/12/05 01:46:38;;;;;;;79.82;34.60;;;5.40;99.90;;;;;;5021647;28;20045;-71
2022/12/05 01:49:14;;;;;;;85.95;35.75;;;5.40;99.90;;;;;;5026729;28;20450;-71
2022/12/05 01:51:44;;;;;;;88.90;36.65;;;5.40;99.90;;;;;;5026713;28;20492;-71
2022/12/05 01:54:11;;;;;;;81.88;36.60;;;5.40;99.90;;;;;;5025215;28;20025;-71
2022/12/05 01:56:40;;;;;;;87.40;36.90;;;5.30;99.90;;;;;;5026276;28;20021;-70
2022/12/05 01:59:07;;;;;;;86.13;37.03;;;5.30;99.90;;;;;;5025140;28;20477;-70
2022/12/05 02:01:34;;;;;;;79.75;34.80;;;5.40;99.90;;;;;;5029481;28;20038;-70
2022/12/05 02:04:00;;;;;;;86.13;37.63;;;5.40;99.90;;;;;;5028029;28;20037;-71
2022/12/05 02:06:27;;;;;;;94.47;38.42;;;5.50;99.90;;;;;;5030038;28;20052;-71
2022/12/05 02:08:53;;;;;;;90.13;38.80;;;5.40;99.90;;;;;;5026802;28;20487;-70
2022/12/05 02:11:20;;;;;;;95.03;39.08;;;5.40;99.90;;;;;;5026960;28;20021;-71
2022/12/05 02:13:58;;;;;;;97.45;40.22;;;5.50;99.90;;;;;;5031833;28;20108;-71
2022/12/05 02:17:01;;;;;;;103.10;42.15;;;5.40;99.90;;;;;;5029787;28;20075;-69
2022/12/05 02:19:57;;;;;;;101.20;39.28;;;5.40;99.90;;;;;;5023757;28;20509;-69
2022/12/05 02:22:44;;;;;;;96.25;38.67;;;5.30;99.90;;;;;;5028629;28;20022;-71
2022/12/05 02:25:10;;;;;;;103.50;41.60;;;5.40;99.90;;;;;;5023206;28;20144;-71
2022/12/05 02:27:48;;;;;;;98.90;38.97;;;5.40;99.90;;;;;;5030560;28;20105;-72
2022/12/05 02:30:19;;;;;;;95.88;40.83;;;5.40;99.90;;;;;;5024921;28;20099;-71
2022/12/05 02:33:10;;;;;;;111.57;41.72;;;5.40;99.90;;;;;;5027816;28;20048;-72
2022/12/05 02:36:05;;;;;;;91.90;37.85;;;5.40;99.90;;;;;;5026000;28;20030;-71
2022/12/05 02:38:40;;;;;;;93.05;39.67;;;5.30;99.90;;;;;;5008129;28;20037;-70
2022/12/05 02:41:26;;;;;;;96.45;39.00;;;5.30;99.90;;;;;;5028007;28;20052;-71
2022/12/05 02:44:02;;;;;;;91.80;38.78;;;5.40;99.90;;;;;;5029685;28;20086;-70
2022/12/05 02:46:30;;;;;;;96.50;37.72;;;5.50;99.90;;;;;;5029118;28;20060;-71
2022/12/05 02:49:01;;;;;;;93.53;39.55;;;5.50;99.90;;;;;;5028507;28;20116;-70
2022/12/05 02:51:31;;;;;;;95.95;38.53;;;5.50;99.90;;;;;;5027468;28;20022;-70
2022/12/05 02:54:01;;;;;;;98.10;39.03;;;5.50;99.90;;;;;;5027686;28;20044;-71
2022/12/05 02:56:31;;;;;;;102.68;39.92;;;5.40;99.90;;;;;;5023701;28;20053;-71
2022/12/05 02:58:57;;;;;;;94.82;41.10;;;5.40;99.90;;;;;;5029094;28;20021;-70
2022/12/05 03:01:27;;;;;;;102.97;41.47;;;5.40;99.90;;;;;;5029391;28;20128;-71
2022/12/05 03:03:54;;;;;;;103.55;39.67;;;5.40;99.90;;;;;;5025163;28;20033;-70
2022/12/05 03:06:30;;;;;;;103.45;39.95;;;5.40;99.90;;;;;;5027641;28;20032;-71
2022/12/05 03:09:14;;;;;;;103.28;40.35;;;5.40;99.90;;;;;;5029642;28;20507;-70
2022/12/05 03:11:46;;;;;;;109.60;41.20;;;5.30;99.90;;;;;;5026349;28;20037;-70
2022/12/05 03:14:20;;;;;;;100.20;40.20;;;5.30;99.90;;;;;;5028700;28;20473;-71
2022/12/05 03:16:52;;;;;;;111.40;42.05;;;5.40;99.90;;;;;;5028712;28;20042;-71
2022/12/05 03:19:27;;;;;;;102.18;42.13;;;5.30;99.90;;;;;;5024988;28;20037;-71
2022/12/05 03:22:00;;;;;;;104.85;41.17;;;5.30;99.90;;;;;;5027590;28;20204;-69
2022/12/05 03:24:26;;;;;;;110.57;41.78;;;5.30;99.90;;;;;;5024976;28;20422;-71
2022/12/05 03:27:10;;;;;;;101.70;41.42;;;5.30;99.90;;;;;;5026773;28;20027;-71
2022/12/05 03:30:03;;;;;;;111.90;42.60;;;5.30;99.90;;;;;;5025615;28;20232;-71
2022/12/05 03:32:57;;;;;;;102.95;40.78;;;5.40;99.90;;;;;;5027952;28;20100;-70
2022/12/05 03:35:35;;;;;;;98.10;38.47;;;5.40;99.90;;;;;;5028651;28;20029;-71
2022/12/05 03:38:25;;;;;;;106.82;40.58;;;5.40;99.90;;;;;;5030064;28;20097;-71
2022/12/05 03:40:56;;;;;;;127.80;46.17;;;5.40;99.90;;;;;;5026642;28;20034;-72
2022/12/05 03:43:43;;;;;;;100.25;41.20;;;5.50;99.90;;;;;;5028158;28;20428;-71
2022/12/05 03:46:49;;;;;;;110.88;43.60;;;5.40;99.90;;;;;;5032742;28;20029;-72
2022/12/05 03:49:32;;;;;;;114.60;44.97;;;5.40;99.90;;;;;;5020702;28;20041;-72
2022/12/05 03:52:05;;;;;;;113.95;43.28;;;5.40;99.90;;;;;;5031361;28;20022;-72
2022/12/05 03:54:42;;;;;;;125.28;45.53;;;5.40;99.90;;;;;;5024618;28;20148;-72
2022/12/05 03:57:15;;;;;;;113.72;45.38;;;5.30;99.90;;;;;;5032308;28;20025;-72
2022/12/05 04:00:03;;;;;;;117.85;45.88;;;5.30;99.90;;;;;;5032198;28;20076;-71
2022/12/05 04:02:44;;;;;;;104.93;44.00;;;5.40;99.90;;;;;;5030105;28;20087;-70
2022/12/05 04:05:27;;;;;;;107.75;44.88;;;5.40;99.90;;;;;;5031635;28;20068;-71
2022/12/05 04:07:59;;;;;;;107.88;41.15;;;5.40;99.90;;;;;;5022721;28;20075;-71
2022/12/05 04:10:31;;;;;;;128.43;44.97;;;5.40;99.90;;;;;;5029926;28;20080;-70
2022/12/05 04:13:16;;;;;;;115.55;42.40;;;5.40;99.90;;;;;;5025582;28;20091;-71
2022/12/05 04:18:33;;;;;;;111.07;43.22;;;5.40;99.90;;;;;;5023366;28;20045;-70
2022/12/05 04:25:31;;;;;;;111.10;45.20;;;5.40;99.90;;;;;;5023813;28;20037;-70
2022/12/05 04:26:35;;;;;;;116.50;44.85;;;5.50;99.90;;;;;;5027326;28;20486;-69
2022/12/05 04:29:10;;;;;;;121.88;43.20;;;5.50;99.90;;;;;;5018509;28;20025;-71
2022/12/05 04:31:42;;;;;;;100.22;41.20;;;5.50;99.90;;;;;;5024913;28;20093;-71
2022/12/05 04:34:11;;;;;;;;;;;5.50;99.90;;;;;;5019269;28;20034;-68
2022/12/05 04:37:01;;;;;;;117.85;42.58;;;5.50;99.90;;;;;;5025721;28;19913;-70
2022/12/05 04:39:44;;;;;;;113.50;42.83;;;5.50;99.90;;;;;;5025781;28;20171;-71
2022/12/05 04:42:15;;;;;;;113.38;43.83;;;5.50;99.90;;;;;;5021849;28;20389;-70
2022/12/05 04:45:05;;;;;;;109.70;41.40;;;5.50;99.90;;;;;;5030227;28;20382;-70
2022/12/05 04:47:36;;;;;;;120.55;43.60;;;5.50;99.90;;;;;;5026972;28;20041;-71
2022/12/05 04:50:05;;;;;;;111.60;45.08;;;5.50;99.90;;;;;;5026753;28;20037;-70
2022/12/05 04:52:32;;;;;;;109.72;44.80;;;5.50;99.90;;;;;;5030652;28;20658;-70
2022/12/05 04:55:10;;;;;;;110.82;43.90;;;5.60;99.90;;;;;;5027950;28;20017;-70
2022/12/05 04:57:38;;;;;;;111.95;41.65;;;5.50;99.90;;;;;;5018322;28;20064;-70
2022/12/05 05:00:04;;;;;;;109.32;43.08;;;5.60;99.90;;;;;;5027476;28;20033;-71
2022/12/05 05:02:49;;;;;;;111.85;43.55;;;5.50;99.90;;;;;;5033062;28;20036;-70
2022/12/05 05:05:17;;;;;;;105.30;42.70;;;5.50;99.90;;;;;;5028502;28;20032;-71
2022/12/05 05:07:49;;;;;;;111.70;43.97;;;5.60;99.90;;;;;;5027841;28;20025;-74
2022/12/05 05:10:32;;;;;;;99.43;41.20;;;5.60;99.90;;;;;;5030081;28;20371;-74
2022/12/05 05:12:57;;;;;;;113.88;43.90;;;5.50;99.90;;;;;;5029512;28;20079;-71
2022/12/05 05:15:23;;;;;;;105.43;43.97;;;5.50;99.90;;;;;;5034149;28;20041;-72
2022/12/05 05:17:48;;;;;;;114.03;42.25;;;5.50;99.90;;;;;;5029848;28;20033;-72
2022/12/05 05:20:23;;;;;;;97.18;39.92;;;5.60;99.90;;;;;;5023524;28;20112;-72
2022/12/05 05:22:57;;;;;;;115.38;42.90;;;5.40;99.90;;;;;;5022282;28;20497;-72
2022/12/05 05:25:24;;;;;;;107.95;42.17;;;5.40;99.90;;;;;;5015198;28;20397;-70
2022/12/05 05:27:55;;;;;;;125.47;45.72;;;5.50;99.90;;;;;;5026938;28;20021;-69
2022/12/05 05:30:22;;;;;;;113.90;44.75;;;5.50;99.90;;;;;;5026548;28;20057;-70
2022/12/05 05:32:48;;;;;;;110.88;43.42;;;5.60;99.90;;;;;;5031215;28;20014;-73
2022/12/05 05:35:14;;;;;;;103.43;41.08;;;5.60;99.90;;;;;;5033187;28;20627;-70
2022/12/05 05:37:41;;;;;;;100.55;42.03;;;5.60;99.90;;;;;;5026057;28;20057;-72
2022/12/05 05:40:09;;;;;;;111.90;43.70;;;5.60;99.90;;;;;;5029221;28;20052;-71
2022/12/05 05:42:35;;;;;;;107.28;41.40;;;5.60;99.90;;;;;;5029193;28;20941;-70
2022/12/05 05:45:00;;;;;;;105.80;42.67;;;5.70;99.90;;;;;;5027754;28;20076;-69
2022/12/05 05:47:26;;;;;;;105.28;41.60;;;5.70;99.90;;;;;;5032333;28;20029;-71
2022/12/05 05:49:52;;;;;;;115.97;42.58;;;5.60;99.90;;;;;;5031284;28;20113;-70
2022/12/05 05:52:17;;;;;;;107.07;44.70;;;5.60;99.90;;;;;;5023538;28;20492;-73
2022/12/05 05:54:43;;;;;;;105.32;42.97;;;5.70;99.90;;;;;;5032495;28;20474;-69
2022/12/05 05:57:09;;;;;;;100.35;39.88;;;5.60;99.90;;;;;;5023065;28;20101;-70
2022/12/05 05:59:34;;;;;;;96.78;39.30;;;5.60;99.90;;;;;;5026047;28;20132;-73
2022/12/05 06:02:00;;;;;;;93.65;37.83;;;5.50;99.90;;;;;;5021965;28;20022;-70
2022/12/05 06:04:25;;;;;;;78.43;36.40;;;5.60;99.90;;;;;;5026922;28;20034;-71
2022/12/05 06:06:51;;;;;;;87.72;36.15;;;5.50;99.90;;;;;;5026197;28;20032;-71
2022/12/05 06:09:16;;;;;;;89.63;36.78;;;5.50;99.90;;;;;;5029520;28;20393;-69
2022/12/05 06:11:42;;;;;;;92.13;37.35;;;5.60;99.90;;;;;;5030240;28;20045;-69
2022/12/05 06:14:08;;;;;;;100.43;39.90;;;5.60;99.90;;;;;;5034931;28;20477;-69
2022/12/05 06:16:34;;;;;;;87.50;38.75;;;5.60;99.90;;;;;;5031007;28;20182;-69
2022/12/05 06:18:59;;;;;;;83.82;35.47;;;5.60;99.90;;;;;;5032615;28;20029;-72
2022/12/05 06:21:25;;;;;;;86.07;35.17;;;5.60;99.90;;;;;;5024443;28;20026;-73
2022/12/05 06:23:52;;;;;;;85.72;35.15;;;5.60;99.90;;;;;;5031620;28;20608;-71
2022/12/05 06:26:19;;;;;;;81.88;34.90;;;5.60;99.90;;;;;;5032737;28;20032;-71
2022/12/05 06:28:45;;;;;;;82.57;34.20;;;5.60;99.90;;;;;;5024912;28;20025;-73
2022/12/05 06:31:14;;;;;;;77.47;35.90;;;5.70;99.90;;;;;;5027359;28;20034;-71
2022/12/05 06:33:39;;;;;;;84.28;36.60;;;5.70;99.90;;;;;;5030316;28;20036;-72
2022/12/05 06:36:08;;;;;;;79.53;32.83;;;5.70;99.90;;;;;;5024509;28;20025;-72
2022/12/05 06:38:34;;;;;;;80.75;34.35;;;5.70;99.90;;;;;;5032181;28;20025;-70
2022/12/05 06:41:03;;;;;;;79.45;34.90;;;5.70;99.90;;;;;;5023969;28;20033;-72
2022/12/05 06:43:29;;;;;;;82.82;35.58;;;5.80;99.90;;;;;;5028576;28;20025;-71
2022/12/05 06:45:54;;;;;;;79.43;33.15;;;5.80;99.90;;;;;;5026916;28;20132;-71
2022/12/05 06:48:20;;;;;;;75.68;32.85;;;5.70;99.90;;;;;;5028172;28;20034;-71
2022/12/05 06:50:50;;;;;;;79.70;36.25;;;5.80;99.90;;;;;;5033550;28;20026;-70
2022/12/05 06:53:16;;;;;;;73.90;35.30;;;5.80;99.90;;;;;;5026623;28;20440;-71
2022/12/05 06:55:41;;;;;;;78.10;33.38;;;5.80;99.90;;;;;;5029209;28;20026;-72
2022/12/05 06:58:07;;;;;;;64.20;30.55;;;5.80;99.90;;;;;;5039836;28;20092;-70
2022/12/05 07:03:17;;;;;;;75.38;33.30;;;5.80;99.90;;;;;;5030118;28;20468;-70
2022/12/05 07:05:42;;;;;;;72.55;33.40;;;5.80;99.90;;;;;;5024265;28;20057;-71
2022/12/05 07:08:08;;;;;;;70.72;31.33;;;5.80;99.90;;;;;;5027377;28;20033;-72
2022/12/05 07:10:33;;;;;;;71.15;32.47;;;5.80;99.90;;;;;;5029165;28;20057;-71
2022/12/05 07:12:59;;;;;;;69.00;31.38;;;5.80;99.90;;;;;;5026538;28;20239;-70
2022/12/05 07:15:24;;;;;;;63.75;31.25;;;5.80;99.90;;;;;;5028624;28;20091;-73
2022/12/05 07:17:50;;;;;;;65.05;30.10;;;5.90;99.90;;;;;;5024044;28;20100;-70
2022/12/05 07:20:16;;;;;;;79.72;33.33;;;5.80;99.90;;;;;;5023995;28;20056;-70
2022/12/05 07:22:43;;;;;;;79.53;32.33;;;5.70;99.90;;;;;;5021388;28;20106;-70
2022/12/05 07:25:09;;;;;;;76.15;33.20;;;5.80;99.90;;;;;;5029088;28;20470;-72
2022/12/05 07:27:34;;;;;;;79.25;33.28;;;5.70;99.90;;;;;;5020040;28;20028;-70
2022/12/05 07:30:00;;;;;;;69.70;32.10;;;5.70;99.90;;;;;;5026921;28;20040;-73
2022/12/05 07:32:26;;;;;;;81.22;32.50;;;5.80;99.90;;;;;;5022871;28;20049;-69
2022/12/05 07:34:51;;;;;;;72.93;30.63;;;5.80;99.90;;;;;;5024105;28;20098;-69
2022/12/05 07:37:17;;;;;;;82.32;32.80;;;5.80;99.90;;;;;;5026599;28;20025;-72
2022/12/05 07:39:43;;;;;;;72.70;33.83;;;5.80;99.90;;;;;;5033212;28;20048;-68
2022/12/05 07:42:08;;;;;;;80.22;34.60;;;5.80;99.90;;;;;;5022782;28;20751;-69
2022/12/05 07:44:34;;;;;;;79.80;32.63;;;5.80;99.90;;;;;;5022187;28;20057;-70
2022/12/05 07:47:00;;;;;;;74.60;31.77;;;5.80;99.90;;;;;;5027467;28;20036;-68
2022/12/05 07:49:26;;;;;;;95.32;37.05;;;5.80;99.90;;;;;;5021469;28;20022;-69
2022/12/05 07:51:52;;;;;;;82.93;34.35;;;5.80;99.90;;;;;;5026022;28;20025;-71
2022/12/05 07:54:17;;;;;;;80.95;35.80;;;5.80;99.90;;;;;;5032941;28;20112;-68
2022/12/05 07:56:43;;;;;;;80.88;35.72;;;5.80;99.90;;;;;;5025960;28;20025;-68
2022/12/05 07:59:08;;;;;;;84.55;36.33;;;5.80;99.90;;;;;;5022723;28;20075;-70
2022/12/05 08:01:35;;;;;;;75.97;33.75;;;5.80;99.90;;;;;;5026233;28;20025;-68
2022/12/05 08:04:01;;;;;;;78.07;34.90;;;5.80;99.90;;;;;;5031906;28;20071;-69
2022/12/05 08:06:28;;;;;;;77.30;32.88;;;5.70;99.90;;;;;;5032135;28;20063;-69
2022/12/05 08:08:55;;;;;;;71.03;33.15;;;5.80;99.90;;;;;;5026110;28;20029;-70
2022/12/05 08:11:29;;;;;;;79.95;34.35;;;5.80;99.90;;;;;;5027824;28;20048;-73
2022/12/05 08:13:55;;;;;;;70.55;32.58;;;5.70;99.90;;;;;;5017597;28;20515;-74
2022/12/05 08:16:23;;;;;;;85.07;34.40;;;5.70;99.90;;;;;;5024793;28;20033;-69
2022/12/05 08:18:56;;;;;;;80.82;33.60;;;5.70;99.90;;;;;;5026737;28;20155;-72
2022/12/05 08:21:24;;;;;;;73.38;32.28;;;5.70;99.90;;;;;;5022867;28;20033;-71
2022/12/05 08:23:50;;;;;;;74.30;33.92;;;5.70;99.90;;;;;;5022931;28;20034;-73
2022/12/05 08:26:23;;;;;;;77.20;35.33;;;5.80;99.90;;;;;;5023428;28;20041;-70
2022/12/05 08:29:02;;;;;;;81.03;33.72;;;5.80;99.90;;;;;;5029663;28;20147;-71
2022/12/05 08:31:30;;;;;;;68.75;30.67;;;5.80;99.90;;;;;;5026194;28;20070;-69
2022/12/05 08:33:57;;;;;;;73.82;32.55;;;5.90;99.90;;;;;;5028064;28;20028;-73
2022/12/05 08:36:23;;;;;;;68.13;32.22;;;5.90;99.90;;;;;;5025144;28;20400;-70
2022/12/05 08:38:49;;;;;;;74.00;33.67;;;5.90;99.90;;;;;;5029112;28;20025;-71
2022/12/05 08:41:16;;;;;;;74.90;32.72;;;6.00;99.90;;;;;;5020806;28;20537;-73
2022/12/05 08:43:43;;;;;;;76.72;33.45;;;5.90;99.90;;;;;;5027526;28;20147;-72
2022/12/05 08:46:10;;;;;;;74.13;33.92;;;6.00;99.90;;;;;;5024535;28;20046;-67
2022/12/05 08:48:36;;;;;;;70.05;33.30;;;5.90;99.90;;;;;;5024303;28;20411;-69
2022/12/05 08:51:09;;;;;;;68.53;32.95;;;5.90;99.90;;;;;;5026287;28;20045;-67
2022/12/05 08:53:36;;;;;;;67.82;31.55;;;6.00;99.90;;;;;;5022702;28;20025;-67
2022/12/05 08:56:05;;;;;;;71.43;32.92;;;6.00;99.90;;;;;;5022824;28;20017;-69
2022/12/05 08:58:32;;;;;;;67.25;30.98;;;6.00;99.90;;;;;;5025322;28;20017;-70
2022/12/05 09:01:15;;;;;;;64.78;29.95;;;5.90;99.90;;;;;;5029989;28;20057;-68
2022/12/05 09:03:42;;;;;;;57.22;29.02;;;5.90;99.90;;;;;;5025819;28;20057;-69
2022/12/05 09:06:10;;;;;;;67.38;30.10;;;6.00;99.90;;;;;;5022269;28;20025;-71
2022/12/05 09:08:37;;;;;;;63.88;30.15;;;6.00;99.90;;;;;;5023024;28;20029;-68
2022/12/05 09:11:07;;;;;;;66.30;31.48;;;6.00;99.90;;;;;;5025871;28;20022;-67
2022/12/05 09:13:33;;;;;;;59.97;29.30;;;6.00;99.90;;;;;;5022264;28;20160;-67
2022/12/05 09:16:04;;;;;;;74.88;31.80;;;6.00;99.90;;;;;;5020196;28;20486;-68
2022/12/05 09:18:30;;;;;;;66.60;30.67;;;5.90;99.90;;;;;;5020346;28;20634;-68
2022/12/05 09:20:56;;;;;;;58.50;28.75;;;5.90;99.90;;;;;;5021087;28;20034;-65
2022/12/05 09:23:21;;;;;;;60.45;27.83;;;6.00;99.90;;;;;;5029180;28;20033;-65
2022/12/05 09:25:56;;;;;;;77.88;32.65;;;6.00;99.90;;;;;;5022047;28;20112;-64
2022/12/05 09:28:22;;;;;;;72.40;33.10;;;6.00;99.90;;;;;;5026537;28;20309;-65
2022/12/05 09:31:00;;;;;;;78.72;35.95;;;6.00;99.90;;;;;;5028465;28;20587;-65
2022/12/05 09:33:26;;;;;;;72.00;32.83;;;6.00;99.90;;;;;;5033374;28;20033;-65
2022/12/05 09:35:51;;;;;;;74.80;35.15;;;6.10;99.90;;;;;;5032566;28;20093;-65
2022/12/05 09:38:17;;;;;;;67.55;32.85;;;6.10;99.90;;;;;;5022700;28;20037;-65
2022/12/05 09:40:43;;;;;;;69.03;30.55;;;6.00;99.90;;;;;;5031326;28;20048;-65
2022/12/05 09:43:33;;;;;;;50.45;27.67;;;5.90;99.90;;;;;;5030277;28;20381;-64
2022/12/05 09:46:19;;;;;;;59.10;27.40;;;6.00;99.90;;;;;;5023473;28;20053;-67
2022/12/05 09:48:46;;;;;;;57.08;25.95;;;6.00;99.90;;;;;;5020968;28;20029;-68
2022/12/05 09:51:12;;;;;;;55.38;27.10;;;6.00;99.90;;;;;;5024948;28;20026;-68
2022/12/05 09:53:43;;;;;;;55.15;26.55;;;6.10;99.90;;;;;;5018345;28;20116;-67
2022/12/05 09:56:08;;;;;;;52.35;26.75;;;6.00;99.90;;;;;;5020537;28;20018;-68
2022/12/05 09:58:40;;;;;;;45.65;24.02;;;6.00;99.90;;;;;;5025171;28;20514;-68
2022/12/05 10:01:30;;;;;;;50.40;24.70;;;6.00;99.90;;;;;;5026076;28;20068;-68
2022/12/05 10:04:11;;;;;;;52.95;25.60;;;6.00;99.90;;;;;;5029481;28;20072;-68
2022/12/05 10:06:39;;;;;;;58.50;26.67;;;5.90;99.90;;;;;;5037840;28;20060;-68
2022/12/05 10:09:14;;;;;;;54.63;25.73;;;5.90;99.90;;;;;;5020786;28;20032;-68
2022/12/05 10:11:54;;;;;;;46.00;25.27;;;5.80;99.90;;;;;;5029200;28;20391;-68
2022/12/05 10:14:38;;;;;;;45.75;23.38;;;5.90;99.90;;;;;;5034047;28;20035;-69
2022/12/05 10:17:15;;;;;;;47.58;24.00;;;5.90;99.90;;;;;;5026417;28;20056;-67
2022/12/05 10:19:45;;;;;;;40.70;22.27;;;5.90;99.90;;;;;;5035372;28;20474;-68
2022/12/05 10:22:21;;;;;;;43.33;23.52;;;6.00;99.90;;;;;;5029799;28;20025;-67
2022/12/05 10:24:54;;;;;;;43.08;24.00;;;5.90;99.90;;;;;;5025859;28;20036;-68
2022/12/05 10:27:35;;;;;;;46.03;25.52;;;6.00;99.90;;;;;;5025557;28;20025;-69
2022/12/05 10:30:13;;;;;;;48.03;24.88;;;6.00;99.90;;;;;;5025201;28;20043;-69
2022/12/05 10:32:53;;;;;;;44.28;22.52;;;6.00;99.90;;;;;;5024701;28;20121;-68
2022/12/05 10:35:26;;;;;;;47.15;24.17;;;6.10;99.90;;;;;;5026077;28;20034;-68
2022/12/05 10:38:02;;;;;;;40.70;24.52;;;6.10;99.90;;;;;;5028940;28;20028;-67
2022/12/05 10:40:41;;;;;;;39.83;23.30;;;6.10;99.90;;;;;;5025097;28;20117;-67
2022/12/05 10:43:11;;;;;;;37.17;21.15;;;6.00;99.90;;;;;;5024005;28;20022;-67
2022/12/05 10:45:46;;;;;;;42.50;22.23;;;6.00;99.90;;;;;;5022192;28;20059;-68
2022/12/05 10:48:14;;;;;;;34.72;20.02;;;5.90;99.90;;;;;;5029966;28;20455;-68
2022/12/05 10:50:42;;;;;;;38.55;20.63;;;5.90;99.90;;;;;;5019868;28;20017;-67
2022/12/05 10:53:14;;;;;;;37.45;21.08;;;6.00;99.90;;;;;;5026255;28;20029;-67
2022/12/05 10:55:42;;;;;;;42.08;21.35;;;6.00;99.90;;;;;;5029311;28;20672;-67
2022/12/05 10:58:16;;;;;;;36.35;21.13;;;6.10;99.90;;;;;;5033749;28;20108;-66
2022/12/05 11:00:45;;;;;;;30.75;18.65;;;5.90;99.90;;;;;;5022881;28;20340;-67
2022/12/05 11:03:25;;;;;;;38.00;23.10;;;5.90;99.90;;;;;;5027367;28;20112;-66
2022/12/05 11:05:53;;;;;;;36.45;21.05;;;5.90;99.90;;;;;;5019364;28;20033;-67
2022/12/05 11:08:25;;;;;;;39.22;21.83;;;6.00;99.90;;;;;;5024936;28;20423;-66
2022/12/05 11:11:01;;;;;;;35.67;22.03;;;6.00;99.90;;;;;;5030742;28;20485;-66
2022/12/05 11:13:27;;;;;;;33.72;20.73;;;6.00;99.90;;;;;;5029128;28;20470;-67
2022/12/05 11:15:52;;;;;;;35.60;20.42;;;6.00;99.90;;;;;;5028971;28;20109;-66
2022/12/05 11:18:24;;;;;;;36.10;19.15;;;6.00;99.90;;;;;;5032847;28;20474;-66
2022/12/05 11:20:50;;;;;;;32.60;19.85;;;6.00;99.90;;;;;;5018358;28;20037;-66
2022/12/05 11:23:36;;;;;;;33.10;19.60;;;5.90;99.90;;;;;;5023060;28;20022;-66
2022/12/05 11:26:02;;;;;;;37.33;22.73;;;6.00;99.90;;;;;;5019566;28;20091;-67
2022/12/05 11:28:36;;;;;;;31.88;18.45;;;6.00;99.90;;;;;;5029963;28;20096;-68
2022/12/05 11:31:11;;;;;;;34.65;20.17;;;6.00;99.90;;;;;;5026744;28;20425;-66
2022/12/05 11:33:37;;;;;;;29.92;19.23;;;6.10;99.90;;;;;;5029235;28;20032;-64
2022/12/05 11:36:19;;;;;;;32.60;18.77;;;6.00;99.90;;;;;;5022632;28;20111;-68
2022/12/05 11:38:45;;;;;;;33.40;19.15;;;6.10;99.90;;;;;;5022791;28;20150;-69
2022/12/05 11:41:34;;;;;;;32.03;19.30;;;6.00;99.90;;;;;;5026947;28;20029;-66
2022/12/05 11:44:19;;;;;;;29.70;18.40;;;6.10;99.90;;;;;;5029060;28;20017;-66
2022/12/05 11:47:04;;;;;;;31.20;18.67;;;6.10;99.90;;;;;;5028695;28;20041;-67
2022/12/05 11:49:51;;;;;;;32.22;18.80;;;6.10;99.90;;;;;;5022302;28;20378;-67
2022/12/05 11:52:29;;;;;;;29.65;18.60;;;6.10;99.90;;;;;;5028076;28;20114;-67
2022/12/05 11:55:09;;;;;;;30.10;19.02;;;6.10;99.90;;;;;;5023460;28;20030;-66
2022/12/05 11:57:44;;;;;;;30.08;17.48;;;6.10;99.90;;;;;;5060884;28;20115;-67
2022/12/05 12:00:44;;;;;;;32.67;17.67;;;6.20;99.90;;;;;;5030640;28;20095;-67
2022/12/05 12:03:31;;;;;;;30.35;17.83;;;6.20;99.90;;;;;;5029008;28;20037;-67
2022/12/05 12:06:30;;;;;;;31.45;17.15;;;6.30;99.90;;;;;;5030340;28;20056;-67
2022/12/05 12:09:07;;;;;;;29.92;16.95;;;6.30;99.90;;;;;;5026397;28;20099;-66
2022/12/05 12:12:11;;;;;;;28.15;16.13;;;6.30;99.90;;;;;;5025723;28;20108;-67
2022/12/05 12:14:46;;;;;;;26.60;15.88;;;6.30;99.90;;;;;;5022279;28;20056;-67
2022/12/05 12:17:41;;;;;;;28.35;16.60;;;6.40;99.90;;;;;;5025165;28;20065;-66
2022/12/05 12:20:09;;;;;;;27.27;16.48;;;6.40;99.90;;;;;;5025323;28;20547;-66
2022/12/05 12:22:53;;;;;;;28.50;17.45;;;6.40;99.90;;;;;;5024651;28;20080;-66
2022/12/05 12:25:37;;;;;;;26.83;17.52;;;6.40;99.90;;;;;;5027812;28;20103;-65
2022/12/05 12:28:15;;;;;;;24.85;15.90;;;6.40;99.90;;;;;;5028571;28;20033;-67
2022/12/05 12:31:45;;;;;;;24.75;16.10;;;6.40;99.90;;;;;;5032654;28;20022;-67
2022/12/05 12:34:29;;;;;;;25.55;14.90;;;6.30;99.90;;;;;;4981555;28;20069;-66
2022/12/05 12:37:17;;;;;;;20.25;13.82;;;6.30;99.90;;;;;;5030066;28;20040;-65
2022/12/05 12:40:24;;;;;;;22.63;13.65;;;6.40;99.90;;;;;;5039527;28;20469;-67
2022/12/05 12:43:14;;;;;;;23.95;14.88;;;6.30;99.90;;;;;;4989686;28;20040;-67
2022/12/05 12:45:50;;;;;;;24.88;15.63;;;6.30;99.90;;;;;;5000875;28;20064;-67
2022/12/05 12:48:31;;;;;;;23.75;14.25;;;6.30;99.90;;;;;;5023428;28;20025;-68
2022/12/05 12:51:00;;;;;;;25.15;15.32;;;6.30;99.90;;;;;;5025768;28;20551;-66
2022/12/05 12:53:48;;;;;;;26.65;16.08;;;6.30;99.90;;;;;;5025384;28;20018;-67
2022/12/05 12:56:53;;;;;;;27.05;16.52;;;6.40;99.90;;;;;;5023676;28;20075;-67
2022/12/05 12:59:42;;;;;;;24.38;15.25;;;6.30;99.90;;;;;;5020506;28;20114;-67
2022/12/05 13:02:20;;;;;;;26.05;16.33;;;6.40;99.90;;;;;;5025071;28;20022;-67
2022/12/05 13:05:15;;;;;;;24.50;15.38;;;6.40;99.90;;;;;;5025121;28;20025;-66
2022/12/05 13:07:50;;;;;;;24.10;16.42;;;6.40;99.90;;;;;;5025002;28;20153;-72
2022/12/05 13:10:38;;;;;;;23.65;15.65;;;6.40;99.90;;;;;;5026242;28;20034;-68